sensor_id;sensor_type;location;lat;lon;timestamp;P1;durP1;ratioP1;P2;durP2;ratioP2
39600;SDS011;25297;44.758;11.310;2023-12-20T00:01:46;51.08;;;30.63;;
39600;SDS011;25297;44.758;11.310;2023-12-20T00:04:11;55.35;;;31.13;;
39600;SDS011;25297;44.758;11.310;2023-12-20T00:06:37;48.80;;;29.92;;
39600;SDS011;25297;44.758;11.310;2023-12-20T00:09:03;50.53;;;29.50;;
39600;SDS011;25297;44.758;11.310;2023-12-20T00:11:28;47.28;;;28.33;;
39600;SDS011;25297;44.758;11.310;2023-12-20T00:13:54;51.75;;;29.42;;
39600;SDS011;25297;44.758;11.310;2023-12-20T00:16:19;49.92;;;29.83;;
39600;SDS011;25297;44.758;11.310;2023-12-20T00:18:45;55.35;;;30.80;;
39600;SDS011;25297;44.758;11.310;2023-12-20T00:21:11;54.33;;;31.15;;
39600;SDS011;25297;44.758;11.310;2023-12-20T00:23:36;48.17;;;29.40;;
39600;SDS011;25297;44.758;11.310;2023-12-20T00:26:02;47.00;;;29.45;;
39600;SDS011;25297;44.758;11.310;2023-12-20T00:28:28;50.60;;;30.73;;
39600;SDS011;25297;44.758;11.310;2023-12-20T00:30:53;47.53;;;29.60;;
39600;SDS011;25297;44.758;11.310;2023-12-20T00:33:19;52.50;;;27.00;;
39600;SDS011;25297;44.758;11.310;2023-12-20T00:35:44;50.50;;;28.17;;
39600;SDS011;25297;44.758;11.310;2023-12-20T00:38:10;50.22;;;28.50;;
39600;SDS011;25297;44.758;11.310;2023-12-20T00:40:36;49.85;;;26.90;;
39600;SDS011;25297;44.758;11.310;2023-12-20T00:43:02;48.97;;;29.55;;
39600;SDS011;25297;44.758;11.310;2023-12-20T00:45:28;47.03;;;26.90;;
39600;SDS011;25297;44.758;11.310;2023-12-20T00:47:54;50.42;;;26.67;;
39600;SDS011;25297;44.758;11.310;2023-12-20T00:50:19;49.10;;;26.63;;
39600;SDS011;25297;44.758;11.310;2023-12-20T00:52:46;47.72;;;25.60;;
39600;SDS011;25297;44.758;11.310;2023-12-20T00:55:12;47.53;;;27.80;;
39600;SDS011;25297;44.758;11.310;2023-12-20T00:57:38;43.92;;;25.52;;
39600;SDS011;25297;44.758;11.310;2023-12-20T01:00:04;41.53;;;23.65;;
39600;SDS011;25297;44.758;11.310;2023-12-20T01:02:30;46.53;;;27.55;;
39600;SDS011;25297;44.758;11.310;2023-12-20T01:04:56;43.92;;;25.75;;
39600;SDS011;25297;44.758;11.310;2023-12-20T01:07:22;43.45;;;25.15;;
39600;SDS011;25297;44.758;11.310;2023-12-20T01:09:47;48.05;;;26.33;;
39600;SDS011;25297;44.758;11.310;2023-12-20T01:12:13;46.13;;;25.75;;
39600;SDS011;25297;44.758;11.310;2023-12-20T01:14:39;44.60;;;25.45;;
39600;SDS011;25297;44.758;11.310;2023-12-20T01:17:04;34.38;;;20.55;;
39600;SDS011;25297;44.758;11.310;2023-12-20T01:19:30;37.15;;;21.88;;
39600;SDS011;25297;44.758;11.310;2023-12-20T01:21:56;38.55;;;23.13;;
39600;SDS011;25297;44.758;11.310;2023-12-20T01:24:21;42.80;;;23.75;;
39600;SDS011;25297;44.758;11.310;2023-12-20T01:26:47;39.65;;;24.08;;
39600;SDS011;25297;44.758;11.310;2023-12-20T01:29:13;43.13;;;24.08;;
39600;SDS011;25297;44.758;11.310;2023-12-20T01:31:39;40.83;;;24.83;;
39600;SDS011;25297;44.758;11.310;2023-12-20T01:34:05;44.42;;;26.25;;
39600;SDS011;25297;44.758;11.310;2023-12-20T01:36:31;39.92;;;25.48;;
39600;SDS011;25297;44.758;11.310;2023-12-20T01:38:57;41.95;;;25.95;;
39600;SDS011;25297;44.758;11.310;2023-12-20T01:41:22;36.78;;;23.20;;
39600;SDS011;25297;44.758;11.310;2023-12-20T01:43:48;39.03;;;23.58;;
39600;SDS011;25297;44.758;11.310;2023-12-20T01:46:14;40.78;;;24.08;;
39600;SDS011;25297;44.758;11.310;2023-12-20T01:48:40;44.35;;;22.83;;
39600;SDS011;25297;44.758;11.310;2023-12-20T01:51:06;45.80;;;24.02;;
39600;SDS011;25297;44.758;11.310;2023-12-20T01:53:32;40.92;;;23.63;;
39600;SDS011;25297;44.758;11.310;2023-12-20T01:55:59;36.65;;;22.33;;
39600;SDS011;25297;44.758;11.310;2023-12-20T01:58:25;41.53;;;23.98;;
39600;SDS011;25297;44.758;11.310;2023-12-20T02:00:51;39.17;;;23.85;;
39600;SDS011;25297;44.758;11.310;2023-12-20T02:03:17;40.58;;;22.88;;
39600;SDS011;25297;44.758;11.310;2023-12-20T02:05:43;40.92;;;24.08;;
39600;SDS011;25297;44.758;11.310;2023-12-20T02:08:11;43.63;;;24.55;;
39600;SDS011;25297;44.758;11.310;2023-12-20T02:10:36;29.80;;;18.65;;
39600;SDS011;25297;44.758;11.310;2023-12-20T02:13:03;31.67;;;17.48;;
39600;SDS011;25297;44.758;11.310;2023-12-20T02:15:29;29.45;;;17.45;;
39600;SDS011;25297;44.758;11.310;2023-12-20T02:17:55;36.53;;;20.65;;
39600;SDS011;25297;44.758;11.310;2023-12-20T02:20:20;31.77;;;19.70;;
39600;SDS011;25297;44.758;11.310;2023-12-20T02:22:46;35.33;;;21.65;;
39600;SDS011;25297;44.758;11.310;2023-12-20T02:25:12;38.05;;;23.13;;
39600;SDS011;25297;44.758;11.310;2023-12-20T02:27:37;33.30;;;21.40;;
39600;SDS011;25297;44.758;11.310;2023-12-20T02:30:04;33.35;;;20.55;;
39600;SDS011;25297;44.758;11.310;2023-12-20T02:32:31;31.17;;;19.35;;
39600;SDS011;25297;44.758;11.310;2023-12-20T02:34:57;32.80;;;19.17;;
39600;SDS011;25297;44.758;11.310;2023-12-20T02:37:23;29.67;;;17.25;;
39600;SDS011;25297;44.758;11.310;2023-12-20T02:39:48;33.22;;;18.65;;
39600;SDS011;25297;44.758;11.310;2023-12-20T02:42:14;29.15;;;18.45;;
39600;SDS011;25297;44.758;11.310;2023-12-20T02:44:40;33.17;;;17.85;;
39600;SDS011;25297;44.758;11.310;2023-12-20T02:47:05;27.77;;;18.65;;
39600;SDS011;25297;44.758;11.310;2023-12-20T02:49:31;32.58;;;19.77;;
39600;SDS011;25297;44.758;11.310;2023-12-20T02:51:57;33.08;;;19.13;;
39600;SDS011;25297;44.758;11.310;2023-12-20T02:54:22;33.92;;;19.42;;
39600;SDS011;25297;44.758;11.310;2023-12-20T02:56:48;28.13;;;18.17;;
39600;SDS011;25297;44.758;11.310;2023-12-20T02:59:14;33.13;;;17.90;;
39600;SDS011;25297;44.758;11.310;2023-12-20T03:01:43;34.33;;;19.45;;
39600;SDS011;25297;44.758;11.310;2023-12-20T03:04:10;30.98;;;19.50;;
39600;SDS011;25297;44.758;11.310;2023-12-20T03:06:36;33.53;;;18.10;;
39600;SDS011;25297;44.758;11.310;2023-12-20T03:09:02;34.25;;;18.23;;
39600;SDS011;25297;44.758;11.310;2023-12-20T03:11:27;33.85;;;19.77;;
39600;SDS011;25297;44.758;11.310;2023-12-20T03:13:54;26.15;;;16.63;;
39600;SDS011;25297;44.758;11.310;2023-12-20T03:16:20;27.15;;;19.02;;
39600;SDS011;25297;44.758;11.310;2023-12-20T03:18:45;34.28;;;19.25;;
39600;SDS011;25297;44.758;11.310;2023-12-20T03:21:11;31.45;;;19.20;;
39600;SDS011;25297;44.758;11.310;2023-12-20T03:23:37;30.50;;;20.15;;
39600;SDS011;25297;44.758;11.310;2023-12-20T03:26:02;32.08;;;19.25;;
39600;SDS011;25297;44.758;11.310;2023-12-20T03:28:29;31.55;;;19.50;;
39600;SDS011;25297;44.758;11.310;2023-12-20T03:30:55;38.25;;;20.77;;
39600;SDS011;25297;44.758;11.310;2023-12-20T03:33:22;33.78;;;19.75;;
39600;SDS011;25297;44.758;11.310;2023-12-20T03:35:47;31.70;;;19.33;;
39600;SDS011;25297;44.758;11.310;2023-12-20T03:38:13;31.48;;;19.23;;
39600;SDS011;25297;44.758;11.310;2023-12-20T03:40:38;29.88;;;18.17;;
39600;SDS011;25297;44.758;11.310;2023-12-20T03:43:04;27.23;;;17.02;;
39600;SDS011;25297;44.758;11.310;2023-12-20T03:45:30;33.33;;;19.48;;
39600;SDS011;25297;44.758;11.310;2023-12-20T03:47:55;33.00;;;17.30;;
39600;SDS011;25297;44.758;11.310;2023-12-20T03:50:25;31.58;;;20.00;;
39600;SDS011;25297;44.758;11.310;2023-12-20T03:52:51;33.42;;;20.23;;
39600;SDS011;25297;44.758;11.310;2023-12-20T03:55:17;28.60;;;16.13;;
39600;SDS011;25297;44.758;11.310;2023-12-20T03:57:43;28.75;;;18.98;;
39600;SDS011;25297;44.758;11.310;2023-12-20T04:00:08;30.23;;;18.60;;
39600;SDS011;25297;44.758;11.310;2023-12-20T04:02:38;31.30;;;18.92;;
39600;SDS011;25297;44.758;11.310;2023-12-20T04:05:04;32.67;;;20.42;;
39600;SDS011;25297;44.758;11.310;2023-12-20T04:07:30;28.08;;;19.33;;
39600;SDS011;25297;44.758;11.310;2023-12-20T04:09:56;32.75;;;20.75;;
39600;SDS011;25297;44.758;11.310;2023-12-20T04:12:21;31.85;;;19.55;;
39600;SDS011;25297;44.758;11.310;2023-12-20T04:14:47;33.08;;;20.63;;
39600;SDS011;25297;44.758;11.310;2023-12-20T04:17:12;30.48;;;18.55;;
39600;SDS011;25297;44.758;11.310;2023-12-20T04:19:40;34.22;;;19.50;;
39600;SDS011;25297;44.758;11.310;2023-12-20T04:22:06;34.15;;;18.67;;
39600;SDS011;25297;44.758;11.310;2023-12-20T04:24:32;34.40;;;18.23;;
39600;SDS011;25297;44.758;11.310;2023-12-20T04:26:58;31.23;;;17.25;;
39600;SDS011;25297;44.758;11.310;2023-12-20T04:29:23;27.67;;;16.90;;
39600;SDS011;25297;44.758;11.310;2023-12-20T04:31:49;32.60;;;18.73;;
39600;SDS011;25297;44.758;11.310;2023-12-20T04:34:16;27.42;;;17.40;;
39600;SDS011;25297;44.758;11.310;2023-12-20T04:36:42;31.88;;;17.60;;
39600;SDS011;25297;44.758;11.310;2023-12-20T04:39:08;29.45;;;17.08;;
39600;SDS011;25297;44.758;11.310;2023-12-20T04:41:34;27.83;;;17.90;;
39600;SDS011;25297;44.758;11.310;2023-12-20T04:43:59;30.77;;;18.90;;
39600;SDS011;25297;44.758;11.310;2023-12-20T04:46:25;27.52;;;17.58;;
39600;SDS011;25297;44.758;11.310;2023-12-20T04:48:51;29.95;;;17.52;;
39600;SDS011;25297;44.758;11.310;2023-12-20T04:51:17;30.85;;;17.52;;
39600;SDS011;25297;44.758;11.310;2023-12-20T04:53:42;24.70;;;16.85;;
39600;SDS011;25297;44.758;11.310;2023-12-20T04:56:08;23.65;;;13.95;;
39600;SDS011;25297;44.758;11.310;2023-12-20T04:58:34;24.40;;;14.43;;
39600;SDS011;25297;44.758;11.310;2023-12-20T05:00:59;24.17;;;15.40;;
39600;SDS011;25297;44.758;11.310;2023-12-20T05:03:25;27.67;;;17.17;;
39600;SDS011;25297;44.758;11.310;2023-12-20T05:05:51;28.67;;;17.65;;
39600;SDS011;25297;44.758;11.310;2023-12-20T05:08:17;27.27;;;17.23;;
39600;SDS011;25297;44.758;11.310;2023-12-20T05:10:42;31.40;;;17.83;;
39600;SDS011;25297;44.758;11.310;2023-12-20T05:13:08;28.95;;;18.92;;
39600;SDS011;25297;44.758;11.310;2023-12-20T05:15:33;29.33;;;18.38;;
39600;SDS011;25297;44.758;11.310;2023-12-20T05:17:59;25.42;;;17.48;;
39600;SDS011;25297;44.758;11.310;2023-12-20T05:20:25;32.72;;;19.50;;
39600;SDS011;25297;44.758;11.310;2023-12-20T05:22:50;28.92;;;19.23;;
39600;SDS011;25297;44.758;11.310;2023-12-20T05:25:16;28.20;;;18.52;;
39600;SDS011;25297;44.758;11.310;2023-12-20T05:27:41;22.45;;;13.25;;
39600;SDS011;25297;44.758;11.310;2023-12-20T05:30:07;29.48;;;17.30;;
39600;SDS011;25297;44.758;11.310;2023-12-20T05:32:33;23.92;;;13.90;;
39600;SDS011;25297;44.758;11.310;2023-12-20T05:34:59;27.05;;;15.55;;
39600;SDS011;25297;44.758;11.310;2023-12-20T05:37:24;29.83;;;18.17;;
39600;SDS011;25297;44.758;11.310;2023-12-20T05:39:50;28.17;;;18.17;;
39600;SDS011;25297;44.758;11.310;2023-12-20T05:42:16;29.20;;;17.70;;
39600;SDS011;25297;44.758;11.310;2023-12-20T05:44:41;25.80;;;15.88;;
39600;SDS011;25297;44.758;11.310;2023-12-20T05:47:07;32.30;;;19.35;;
39600;SDS011;25297;44.758;11.310;2023-12-20T05:49:32;28.05;;;18.98;;
39600;SDS011;25297;44.758;11.310;2023-12-20T05:51:58;31.98;;;17.75;;
39600;SDS011;25297;44.758;11.310;2023-12-20T05:54:24;26.77;;;16.67;;
39600;SDS011;25297;44.758;11.310;2023-12-20T05:56:49;27.67;;;19.00;;
39600;SDS011;25297;44.758;11.310;2023-12-20T05:59:15;27.17;;;16.23;;
39600;SDS011;25297;44.758;11.310;2023-12-20T06:01:41;28.33;;;18.20;;
39600;SDS011;25297;44.758;11.310;2023-12-20T06:04:07;35.28;;;19.23;;
39600;SDS011;25297;44.758;11.310;2023-12-20T06:06:32;33.03;;;19.10;;
39600;SDS011;25297;44.758;11.310;2023-12-20T06:08:58;27.80;;;17.42;;
39600;SDS011;25297;44.758;11.310;2023-12-20T06:11:24;26.35;;;18.10;;
39600;SDS011;25297;44.758;11.310;2023-12-20T06:13:49;30.92;;;17.98;;
39600;SDS011;25297;44.758;11.310;2023-12-20T06:16:17;31.05;;;18.70;;
39600;SDS011;25297;44.758;11.310;2023-12-20T06:18:43;31.30;;;18.10;;
39600;SDS011;25297;44.758;11.310;2023-12-20T06:21:09;25.55;;;16.27;;
39600;SDS011;25297;44.758;11.310;2023-12-20T06:23:37;33.15;;;20.48;;
39600;SDS011;25297;44.758;11.310;2023-12-20T06:26:03;36.08;;;19.45;;
39600;SDS011;25297;44.758;11.310;2023-12-20T06:28:29;28.52;;;18.20;;
39600;SDS011;25297;44.758;11.310;2023-12-20T06:30:55;39.17;;;19.02;;
39600;SDS011;25297;44.758;11.310;2023-12-20T06:33:21;33.55;;;17.55;;
39600;SDS011;25297;44.758;11.310;2023-12-20T06:35:48;31.15;;;16.27;;
39600;SDS011;25297;44.758;11.310;2023-12-20T06:38:13;33.88;;;17.60;;
39600;SDS011;25297;44.758;11.310;2023-12-20T06:40:39;31.95;;;16.65;;
39600;SDS011;25297;44.758;11.310;2023-12-20T06:43:05;29.73;;;17.10;;
39600;SDS011;25297;44.758;11.310;2023-12-20T06:45:31;27.67;;;16.92;;
39600;SDS011;25297;44.758;11.310;2023-12-20T06:47:57;28.55;;;15.10;;
39600;SDS011;25297;44.758;11.310;2023-12-20T06:50:23;27.67;;;15.23;;
39600;SDS011;25297;44.758;11.310;2023-12-20T06:52:49;27.00;;;17.50;;
39600;SDS011;25297;44.758;11.310;2023-12-20T06:55:15;30.90;;;16.05;;
39600;SDS011;25297;44.758;11.310;2023-12-20T06:57:40;27.67;;;17.08;;
39600;SDS011;25297;44.758;11.310;2023-12-20T07:00:06;24.83;;;16.45;;
39600;SDS011;25297;44.758;11.310;2023-12-20T07:02:33;26.15;;;15.10;;
39600;SDS011;25297;44.758;11.310;2023-12-20T07:04:59;31.52;;;20.88;;
39600;SDS011;25297;44.758;11.310;2023-12-20T07:07:25;32.00;;;21.45;;
39600;SDS011;25297;44.758;11.310;2023-12-20T07:09:51;30.55;;;18.15;;
39600;SDS011;25297;44.758;11.310;2023-12-20T07:12:17;35.38;;;18.23;;
39600;SDS011;25297;44.758;11.310;2023-12-20T07:14:45;29.45;;;19.25;;
39600;SDS011;25297;44.758;11.310;2023-12-20T07:17:11;26.85;;;16.88;;
39600;SDS011;25297;44.758;11.310;2023-12-20T07:19:38;26.48;;;17.15;;
39600;SDS011;25297;44.758;11.310;2023-12-20T07:22:05;31.48;;;17.98;;
39600;SDS011;25297;44.758;11.310;2023-12-20T07:24:31;29.33;;;16.92;;
39600;SDS011;25297;44.758;11.310;2023-12-20T07:26:57;24.50;;;15.00;;
39600;SDS011;25297;44.758;11.310;2023-12-20T07:29:24;22.50;;;14.63;;
39600;SDS011;25297;44.758;11.310;2023-12-20T07:31:50;25.35;;;15.43;;
39600;SDS011;25297;44.758;11.310;2023-12-20T07:34:17;26.48;;;14.63;;
39600;SDS011;25297;44.758;11.310;2023-12-20T07:36:42;25.98;;;17.13;;
39600;SDS011;25297;44.758;11.310;2023-12-20T07:39:08;30.23;;;16.45;;
39600;SDS011;25297;44.758;11.310;2023-12-20T07:41:34;23.60;;;16.58;;
39600;SDS011;25297;44.758;11.310;2023-12-20T07:43:59;27.00;;;17.40;;
39600;SDS011;25297;44.758;11.310;2023-12-20T07:46:25;27.42;;;16.75;;
39600;SDS011;25297;44.758;11.310;2023-12-20T07:48:51;25.85;;;16.27;;
39600;SDS011;25297;44.758;11.310;2023-12-20T07:51:16;28.58;;;15.73;;
39600;SDS011;25297;44.758;11.310;2023-12-20T07:53:42;24.00;;;15.93;;
39600;SDS011;25297;44.758;11.310;2023-12-20T07:56:14;26.00;;;16.52;;
39600;SDS011;25297;44.758;11.310;2023-12-20T07:58:43;26.92;;;16.55;;
39600;SDS011;25297;44.758;11.310;2023-12-20T08:01:10;28.00;;;16.83;;
39600;SDS011;25297;44.758;11.310;2023-12-20T08:03:36;23.77;;;14.40;;
39600;SDS011;25297;44.758;11.310;2023-12-20T08:06:02;23.15;;;13.70;;
39600;SDS011;25297;44.758;11.310;2023-12-20T08:08:27;27.88;;;14.10;;
39600;SDS011;25297;44.758;11.310;2023-12-20T08:10:53;26.65;;;14.52;;
39600;SDS011;25297;44.758;11.310;2023-12-20T08:13:19;23.92;;;13.63;;
39600;SDS011;25297;44.758;11.310;2023-12-20T08:15:44;27.45;;;14.10;;
39600;SDS011;25297;44.758;11.310;2023-12-20T08:18:10;24.25;;;13.88;;
39600;SDS011;25297;44.758;11.310;2023-12-20T08:20:36;33.05;;;18.65;;
39600;SDS011;25297;44.758;11.310;2023-12-20T08:23:01;30.70;;;16.58;;
39600;SDS011;25297;44.758;11.310;2023-12-20T08:25:27;27.73;;;15.50;;
39600;SDS011;25297;44.758;11.310;2023-12-20T08:27:53;26.50;;;14.40;;
39600;SDS011;25297;44.758;11.310;2023-12-20T08:30:19;25.15;;;14.45;;
39600;SDS011;25297;44.758;11.310;2023-12-20T08:32:47;25.38;;;15.68;;
39600;SDS011;25297;44.758;11.310;2023-12-20T08:35:13;23.35;;;15.73;;
39600;SDS011;25297;44.758;11.310;2023-12-20T08:37:39;30.00;;;14.73;;
39600;SDS011;25297;44.758;11.310;2023-12-20T08:40:05;27.08;;;15.90;;
39600;SDS011;25297;44.758;11.310;2023-12-20T08:42:31;20.15;;;12.98;;
39600;SDS011;25297;44.758;11.310;2023-12-20T08:44:59;22.55;;;13.98;;
39600;SDS011;25297;44.758;11.310;2023-12-20T08:47:25;24.52;;;13.90;;
39600;SDS011;25297;44.758;11.310;2023-12-20T08:49:50;22.30;;;14.43;;
39600;SDS011;25297;44.758;11.310;2023-12-20T08:52:21;21.27;;;13.77;;
39600;SDS011;25297;44.758;11.310;2023-12-20T08:54:50;19.50;;;12.98;;
39600;SDS011;25297;44.758;11.310;2023-12-20T08:57:21;21.50;;;13.90;;
39600;SDS011;25297;44.758;11.310;2023-12-20T08:59:48;26.52;;;14.05;;
39600;SDS011;25297;44.758;11.310;2023-12-20T09:02:16;24.80;;;14.52;;
39600;SDS011;25297;44.758;11.310;2023-12-20T09:04:42;19.80;;;13.65;;
39600;SDS011;25297;44.758;11.310;2023-12-20T09:07:20;21.88;;;14.32;;
39600;SDS011;25297;44.758;11.310;2023-12-20T09:09:50;21.52;;;14.07;;
39600;SDS011;25297;44.758;11.310;2023-12-20T09:12:17;22.17;;;14.32;;
39600;SDS011;25297;44.758;11.310;2023-12-20T09:14:44;28.27;;;16.73;;
39600;SDS011;25297;44.758;11.310;2023-12-20T09:17:09;37.88;;;21.92;;
39600;SDS011;25297;44.758;11.310;2023-12-20T09:19:36;44.88;;;23.70;;
39600;SDS011;25297;44.758;11.310;2023-12-20T09:22:02;28.23;;;18.73;;
39600;SDS011;25297;44.758;11.310;2023-12-20T09:24:28;29.88;;;19.10;;
39600;SDS011;25297;44.758;11.310;2023-12-20T09:26:54;24.30;;;15.10;;
39600;SDS011;25297;44.758;11.310;2023-12-20T09:29:20;22.30;;;14.40;;
39600;SDS011;25297;44.758;11.310;2023-12-20T09:31:46;19.98;;;14.40;;
39600;SDS011;25297;44.758;11.310;2023-12-20T09:34:13;24.70;;;15.18;;
39600;SDS011;25297;44.758;11.310;2023-12-20T09:36:40;24.70;;;16.85;;
39600;SDS011;25297;44.758;11.310;2023-12-20T09:39:11;25.15;;;16.75;;
39600;SDS011;25297;44.758;11.310;2023-12-20T09:41:38;26.70;;;16.73;;
39600;SDS011;25297;44.758;11.310;2023-12-20T09:44:08;27.10;;;16.73;;
39600;SDS011;25297;44.758;11.310;2023-12-20T09:46:39;24.52;;;16.88;;
39600;SDS011;25297;44.758;11.310;2023-12-20T09:49:09;25.52;;;16.70;;
39600;SDS011;25297;44.758;11.310;2023-12-20T09:51:36;31.45;;;17.10;;
39600;SDS011;25297;44.758;11.310;2023-12-20T09:54:03;25.85;;;17.08;;
39600;SDS011;25297;44.758;11.310;2023-12-20T09:56:29;26.70;;;18.08;;
39600;SDS011;25297;44.758;11.310;2023-12-20T09:58:55;28.92;;;19.63;;
39600;SDS011;25297;44.758;11.310;2023-12-20T10:01:21;26.58;;;18.63;;
39600;SDS011;25297;44.758;11.310;2023-12-20T10:03:47;28.48;;;20.10;;
39600;SDS011;25297;44.758;11.310;2023-12-20T10:06:12;28.25;;;20.10;;
39600;SDS011;25297;44.758;11.310;2023-12-20T10:08:38;25.17;;;18.00;;
39600;SDS011;25297;44.758;11.310;2023-12-20T10:11:04;29.00;;;18.50;;
39600;SDS011;25297;44.758;11.310;2023-12-20T10:13:30;28.63;;;20.38;;
39600;SDS011;25297;44.758;11.310;2023-12-20T10:15:56;29.63;;;20.88;;
39600;SDS011;25297;44.758;11.310;2023-12-20T10:18:22;25.88;;;18.98;;
39600;SDS011;25297;44.758;11.310;2023-12-20T10:20:48;31.48;;;19.63;;
39600;SDS011;25297;44.758;11.310;2023-12-20T10:23:15;26.75;;;19.70;;
39600;SDS011;25297;44.758;11.310;2023-12-20T10:25:41;25.83;;;19.73;;
39600;SDS011;25297;44.758;11.310;2023-12-20T10:28:13;31.17;;;22.48;;
39600;SDS011;25297;44.758;11.310;2023-12-20T10:30:44;30.00;;;21.90;;
39600;SDS011;25297;44.758;11.310;2023-12-20T10:33:10;33.78;;;23.88;;
39600;SDS011;25297;44.758;11.310;2023-12-20T10:35:36;35.28;;;22.25;;
39600;SDS011;25297;44.758;11.310;2023-12-20T10:38:03;31.50;;;21.35;;
39600;SDS011;25297;44.758;11.310;2023-12-20T10:40:30;28.60;;;20.90;;
39600;SDS011;25297;44.758;11.310;2023-12-20T10:42:59;28.85;;;20.70;;
39600;SDS011;25297;44.758;11.310;2023-12-20T10:45:26;30.30;;;21.00;;
39600;SDS011;25297;44.758;11.310;2023-12-20T10:47:51;36.97;;;23.48;;
39600;SDS011;25297;44.758;11.310;2023-12-20T10:50:18;29.58;;;21.02;;
39600;SDS011;25297;44.758;11.310;2023-12-20T10:52:45;28.70;;;20.33;;
39600;SDS011;25297;44.758;11.310;2023-12-20T10:55:11;30.85;;;21.10;;
39600;SDS011;25297;44.758;11.310;2023-12-20T10:57:37;29.55;;;21.85;;
39600;SDS011;25297;44.758;11.310;2023-12-20T11:00:04;32.70;;;23.48;;
39600;SDS011;25297;44.758;11.310;2023-12-20T11:02:34;26.02;;;19.75;;
39600;SDS011;25297;44.758;11.310;2023-12-20T11:08:00;30.58;;;20.55;;
39600;SDS011;25297;44.758;11.310;2023-12-20T11:13:36;31.70;;;24.08;;
39600;SDS011;25297;44.758;11.310;2023-12-20T11:16:05;31.50;;;20.88;;
39600;SDS011;25297;44.758;11.310;2023-12-20T11:18:32;34.97;;;25.25;;
39600;SDS011;25297;44.758;11.310;2023-12-20T11:21:04;34.95;;;22.40;;
39600;SDS011;25297;44.758;11.310;2023-12-20T11:23:30;35.30;;;24.15;;
39600;SDS011;25297;44.758;11.310;2023-12-20T11:25:59;30.58;;;21.67;;
39600;SDS011;25297;44.758;11.310;2023-12-20T11:28:26;34.10;;;24.33;;
39600;SDS011;25297;44.758;11.310;2023-12-20T11:30:53;30.77;;;22.40;;
39600;SDS011;25297;44.758;11.310;2023-12-20T11:33:23;30.85;;;23.17;;
39600;SDS011;25297;44.758;11.310;2023-12-20T11:35:50;31.75;;;22.23;;
39600;SDS011;25297;44.758;11.310;2023-12-20T11:38:16;31.33;;;23.02;;
39600;SDS011;25297;44.758;11.310;2023-12-20T11:40:45;35.53;;;23.67;;
39600;SDS011;25297;44.758;11.310;2023-12-20T11:43:30;30.83;;;22.98;;
39600;SDS011;25297;44.758;11.310;2023-12-20T11:46:01;36.03;;;24.77;;
39600;SDS011;25297;44.758;11.310;2023-12-20T11:48:31;33.80;;;26.20;;
39600;SDS011;25297;44.758;11.310;2023-12-20T11:50:57;39.33;;;25.52;;
39600;SDS011;25297;44.758;11.310;2023-12-20T11:53:23;42.78;;;26.08;;
39600;SDS011;25297;44.758;11.310;2023-12-20T11:55:49;43.50;;;28.95;;
39600;SDS011;25297;44.758;11.310;2023-12-20T11:58:15;47.85;;;32.63;;
39600;SDS011;25297;44.758;11.310;2023-12-20T12:00:41;42.70;;;29.75;;
39600;SDS011;25297;44.758;11.310;2023-12-20T12:03:08;39.35;;;28.40;;
39600;SDS011;25297;44.758;11.310;2023-12-20T12:05:34;38.88;;;27.58;;
39600;SDS011;25297;44.758;11.310;2023-12-20T12:08:00;37.00;;;27.60;;
39600;SDS011;25297;44.758;11.310;2023-12-20T12:10:27;39.05;;;27.20;;
39600;SDS011;25297;44.758;11.310;2023-12-20T12:12:53;39.88;;;27.52;;
39600;SDS011;25297;44.758;11.310;2023-12-20T12:15:19;38.90;;;28.10;;
39600;SDS011;25297;44.758;11.310;2023-12-20T12:17:52;37.28;;;27.05;;
39600;SDS011;25297;44.758;11.310;2023-12-20T12:20:19;36.40;;;27.67;;
39600;SDS011;25297;44.758;11.310;2023-12-20T12:22:45;41.22;;;27.65;;
39600;SDS011;25297;44.758;11.310;2023-12-20T12:25:15;40.15;;;27.80;;
39600;SDS011;25297;44.758;11.310;2023-12-20T12:27:41;40.42;;;28.73;;
39600;SDS011;25297;44.758;11.310;2023-12-20T12:30:07;39.05;;;29.83;;
39600;SDS011;25297;44.758;11.310;2023-12-20T12:32:34;40.55;;;30.40;;
39600;SDS011;25297;44.758;11.310;2023-12-20T12:35:04;43.47;;;32.47;;
39600;SDS011;25297;44.758;11.310;2023-12-20T12:37:34;44.17;;;30.90;;
39600;SDS011;25297;44.758;11.310;2023-12-20T12:40:04;38.60;;;29.42;;
39600;SDS011;25297;44.758;11.310;2023-12-20T12:42:30;43.67;;;32.53;;
39600;SDS011;25297;44.758;11.310;2023-12-20T12:44:56;41.95;;;30.67;;
39600;SDS011;25297;44.758;11.310;2023-12-20T12:47:22;46.45;;;32.25;;
39600;SDS011;25297;44.758;11.310;2023-12-20T12:49:49;50.72;;;34.30;;
39600;SDS011;25297;44.758;11.310;2023-12-20T12:52:16;46.45;;;33.90;;
39600;SDS011;25297;44.758;11.310;2023-12-20T12:54:42;45.35;;;33.50;;
39600;SDS011;25297;44.758;11.310;2023-12-20T12:57:08;49.65;;;35.80;;
39600;SDS011;25297;44.758;11.310;2023-12-20T12:59:33;51.38;;;39.58;;
39600;SDS011;25297;44.758;11.310;2023-12-20T13:01:59;52.97;;;40.97;;
39600;SDS011;25297;44.758;11.310;2023-12-20T13:04:25;54.42;;;39.95;;
39600;SDS011;25297;44.758;11.310;2023-12-20T13:06:51;52.35;;;38.53;;
39600;SDS011;25297;44.758;11.310;2023-12-20T13:09:16;52.22;;;39.10;;
39600;SDS011;25297;44.758;11.310;2023-12-20T13:11:43;54.40;;;39.42;;
39600;SDS011;25297;44.758;11.310;2023-12-20T13:14:09;53.70;;;37.25;;
39600;SDS011;25297;44.758;11.310;2023-12-20T13:16:40;51.33;;;37.40;;
39600;SDS011;25297;44.758;11.310;2023-12-20T13:19:09;50.78;;;37.83;;
39600;SDS011;25297;44.758;11.310;2023-12-20T13:21:35;52.72;;;40.38;;
39600;SDS011;25297;44.758;11.310;2023-12-20T13:24:01;55.85;;;43.38;;
39600;SDS011;25297;44.758;11.310;2023-12-20T13:26:27;59.85;;;39.45;;
39600;SDS011;25297;44.758;11.310;2023-12-20T13:28:53;53.05;;;39.05;;
39600;SDS011;25297;44.758;11.310;2023-12-20T13:31:19;52.90;;;40.58;;
39600;SDS011;25297;44.758;11.310;2023-12-20T13:33:45;53.10;;;40.22;;
39600;SDS011;25297;44.758;11.310;2023-12-20T13:36:11;56.58;;;42.45;;
39600;SDS011;25297;44.758;11.310;2023-12-20T13:38:38;62.03;;;41.78;;
39600;SDS011;25297;44.758;11.310;2023-12-20T13:41:04;54.95;;;39.78;;
39600;SDS011;25297;44.758;11.310;2023-12-20T13:43:30;59.55;;;40.10;;
39600;SDS011;25297;44.758;11.310;2023-12-20T13:45:57;79.72;;;54.03;;
39600;SDS011;25297;44.758;11.310;2023-12-20T13:48:23;92.70;;;68.65;;
39600;SDS011;25297;44.758;11.310;2023-12-20T13:50:49;54.97;;;42.67;;
39600;SDS011;25297;44.758;11.310;2023-12-20T13:53:15;53.22;;;42.90;;
39600;SDS011;25297;44.758;11.310;2023-12-20T13:55:41;50.00;;;36.83;;
39600;SDS011;25297;44.758;11.310;2023-12-20T13:58:06;54.15;;;40.75;;
39600;SDS011;25297;44.758;11.310;2023-12-20T14:00:32;52.33;;;41.47;;
39600;SDS011;25297;44.758;11.310;2023-12-20T14:02:58;62.65;;;49.65;;
39600;SDS011;25297;44.758;11.310;2023-12-20T14:05:23;60.75;;;50.13;;
39600;SDS011;25297;44.758;11.310;2023-12-20T14:07:49;66.80;;;51.47;;
39600;SDS011;25297;44.758;11.310;2023-12-20T14:10:15;59.55;;;44.75;;